Time;durP1;ratioP1;P1;durP2;ratioP2;P2;SDS_P1;SDS_P2;PMS_P1;PMS_P2;Temp;Humidity;BMP_temperature;BMP_pressure;BME280_temperature;BME280_humidity;BME280_pressure;Samples;Min_cycle;Max_cycle;Signal;HPM_P1;HPM_P2
2024/01/20 00:01:55;;;;;;;14.20;7.57;;;1.10;99.90;;;;;;5071056;28;20390;-91
2024/01/20 00:04:21;;;;;;;13.93;7.20;;;1.10;99.90;;;;;;5088249;28;20398;-90
2024/01/20 00:06:47;;;;;;;14.50;7.00;;;1.10;99.90;;;;;;5070610;28;20402;-92
2024/01/20 00:09:13;;;;;;;13.47;7.23;;;1.10;99.90;;;;;;5084752;28;20970;-91
2024/01/20 00:11:39;;;;;;;16.13;6.93;;;1.10;99.90;;;;;;5089920;28;20408;-90
2024/01/20 00:14:04;;;;;;;12.77;6.70;;;1.20;99.90;;;;;;5092420;28;20491;-90
2024/01/20 00:16:30;;;;;;;14.50;6.80;;;1.30;99.90;;;;;;5090409;28;20933;-91
2024/01/20 00:18:57;;;;;;;12.48;6.30;;;1.10;99.90;;;;;;5091652;28;20424;-91
2024/01/20 00:21:23;;;;;;;16.63;6.22;;;1.10;99.90;;;;;;5091625;28;20846;-90
2024/01/20 00:23:49;;;;;;;16.05;6.50;;;1.10;99.90;;;;;;5083404;28;20831;-90
2024/01/20 00:26:14;;;;;;;11.50;5.15;;;1.10;99.90;;;;;;5088319;28;20532;-91
2024/01/20 00:28:40;;;;;;;11.40;5.10;;;1.30;99.90;;;;;;5069454;28;20485;-92
2024/01/20 00:31:06;;;;;;;13.53;5.90;;;1.10;99.90;;;;;;5071448;28;20429;-91
2024/01/20 00:33:31;;;;;;;15.32;5.47;;;1.30;99.90;;;;;;5069300;28;20601;-89
2024/01/20 00:35:57;;;;;;;11.07;5.20;;;1.10;99.90;;;;;;5071216;28;20394;-90
2024/01/20 00:38:25;;;;;;;11.23;5.30;;;1.50;99.90;;;;;;5070413;28;20402;-90
2024/01/20 00:40:51;;;;;;;14.52;6.10;;;1.40;99.90;;;;;;5070457;28;20416;-90
2024/01/20 00:43:16;;;;;;;13.63;6.60;;;1.20;99.90;;;;;;5070534;28;20430;-91
2024/01/20 00:45:42;;;;;;;14.00;6.82;;;1.20;99.90;;;;;;5069919;28;20832;-92
2024/01/20 00:48:08;;;;;;;18.35;8.80;;;1.10;99.90;;;;;;5070894;28;20488;-90
2024/01/20 00:50:34;;;;;;;12.77;8.35;;;1.20;99.90;;;;;;5069296;28;20410;-91
2024/01/20 00:53:00;;;;;;;16.10;8.73;;;1.20;99.90;;;;;;5070951;28;20444;-90
2024/01/20 00:55:25;;;;;;;14.75;9.30;;;1.20;99.90;;;;;;5086430;28;20394;-91
2024/01/20 00:57:51;;;;;;;17.63;9.73;;;1.20;99.90;;;;;;5070641;28;20398;-93
2024/01/20 01:00:17;;;;;;;18.53;11.00;;;1.20;99.90;;;;;;5070473;28;20486;-91
2024/01/20 01:02:43;;;;;;;15.63;11.10;;;1.10;99.90;;;;;;5086567;28;20430;-91
2024/01/20 01:05:08;;;;;;;17.80;12.50;;;0.90;99.90;;;;;;5070675;28;20444;-91
2024/01/20 01:07:35;;;;;;;17.07;12.80;;;1.20;99.90;;;;;;5069409;28;20451;-91
2024/01/20 01:10:03;;;;;;;18.08;13.30;;;1.20;99.90;;;;;;5071030;28;20402;-92
2024/01/20 01:12:29;;;;;;;20.58;13.40;;;1.20;99.90;;;;;;5069679;28;20398;-91
2024/01/20 01:14:55;;;;;;;20.60;13.65;;;1.20;99.90;;;;;;5070556;28;20405;-90
2024/01/20 01:17:21;;;;;;;19.63;13.55;;;1.40;99.90;;;;;;5069608;28;20447;-91
2024/01/20 01:19:47;;;;;;;16.70;13.25;;;1.30;99.90;;;;;;5069964;28;20506;-93
2024/01/20 01:22:12;;;;;;;18.60;14.80;;;1.30;99.90;;;;;;5087300;28;20509;-92
2024/01/20 01:24:38;;;;;;;19.27;13.48;;;1.20;99.90;;;;;;5068883;28;20966;-90
2024/01/20 01:27:05;;;;;;;20.73;14.57;;;1.20;99.90;;;;;;5070609;28;20448;-91
2024/01/20 01:29:31;;;;;;;19.88;13.25;;;1.20;99.90;;;;;;5086049;28;20726;-92
2024/01/20 01:31:56;;;;;;;19.87;13.47;;;1.40;99.90;;;;;;5070538;28;20413;-92
2024/01/20 01:34:22;;;;;;;18.77;13.37;;;1.20;99.90;;;;;;5069585;28;20426;-92
2024/01/20 01:36:48;;;;;;;15.70;12.35;;;1.20;99.90;;;;;;5070102;28;20394;-90
2024/01/20 01:39:16;;;;;;;19.23;13.57;;;1.20;99.90;;;;;;5069917;28;20443;-91
2024/01/20 01:41:42;;;;;;;15.97;12.40;;;1.30;99.90;;;;;;5069187;28;20503;-91
2024/01/20 01:44:08;;;;;;;16.93;12.20;;;1.20;99.90;;;;;;5070546;28;20429;-91
2024/01/20 01:46:34;;;;;;;17.88;12.65;;;1.20;99.90;;;;;;5068500;28;20904;-92
2024/01/20 01:49:00;;;;;;;17.48;11.98;;;1.20;99.90;;;;;;5070485;28;20398;-91
2024/01/20 01:51:27;;;;;;;17.88;12.13;;;1.20;99.90;;;;;;5068806;28;20467;-91
2024/01/20 01:53:53;;;;;;;18.90;11.43;;;1.10;99.90;;;;;;5070510;28;20412;-89
2024/01/20 01:56:20;;;;;;;15.70;12.00;;;1.10;99.90;;;;;;5069812;28;20483;-91
2024/01/20 01:58:46;;;;;;;18.52;12.32;;;1.20;99.90;;;;;;5069423;28;20406;-90
2024/01/20 02:01:12;;;;;;;17.85;12.10;;;1.10;99.90;;;;;;5087052;28;20780;-93
2024/01/20 02:03:39;;;;;;;17.75;12.35;;;1.10;99.90;;;;;;5068823;28;20461;-91
2024/01/20 02:06:06;;;;;;;19.17;11.45;;;1.10;99.90;;;;;;5087059;28;20414;-91
2024/01/20 02:08:32;;;;;;;18.67;10.90;;;1.10;99.90;;;;;;5068764;28;20398;-91
2024/01/20 02:10:58;;;;;;;15.07;10.50;;;1.10;99.90;;;;;;5069856;28;20409;-92
2024/01/20 02:13:24;;;;;;;16.63;10.57;;;1.10;99.90;;;;;;5068950;28;20505;-90
2024/01/20 02:15:50;;;;;;;13.32;9.60;;;1.10;99.90;;;;;;5069237;28;20940;-92
2024/01/20 02:18:15;;;;;;;17.90;9.93;;;1.30;99.90;;;;;;5069651;28;20398;-91
2024/01/20 02:20:41;;;;;;;15.53;8.73;;;1.20;99.90;;;;;;5068482;28;20422;-90
2024/01/20 02:23:07;;;;;;;13.83;8.80;;;1.10;99.90;;;;;;5069491;28;20430;-92
2024/01/20 02:25:32;;;;;;;14.70;8.63;;;1.30;99.90;;;;;;5068297;28;20414;-90
2024/01/20 02:27:58;;;;;;;15.68;9.48;;;1.60;99.90;;;;;;5069632;28;20433;-90
2024/01/20 02:30:24;;;;;;;16.35;10.00;;;1.20;99.90;;;;;;5068888;28;20410;-90
2024/01/20 02:32:50;;;;;;;14.57;10.43;;;1.20;99.90;;;;;;5069794;28;20412;-90
2024/01/20 02:35:18;;;;;;;19.23;10.93;;;1.30;99.90;;;;;;5070345;28;20409;-89
2024/01/20 02:37:44;;;;;;;18.92;11.77;;;1.10;99.90;;;;;;5072943;28;20484;-93
2024/01/20 02:40:11;;;;;;;19.00;12.50;;;1.10;99.90;;;;;;5073523;28;20402;-90
2024/01/20 02:42:36;;;;;;;18.50;13.00;;;1.20;99.90;;;;;;5072057;28;20426;-90
2024/01/20 02:45:03;;;;;;;17.63;11.77;;;1.40;99.90;;;;;;5073544;28;20402;-91
2024/01/20 02:47:28;;;;;;;19.98;12.48;;;1.20;99.90;;;;;;5072164;28;20410;-92
2024/01/20 02:49:54;;;;;;;18.03;13.50;;;1.20;99.90;;;;;;5072691;28;20480;-90
2024/01/20 02:52:19;;;;;;;19.07;14.00;;;1.20;99.90;;;;;;5072350;28;20879;-91
2024/01/20 02:54:45;;;;;;;20.60;14.80;;;1.20;99.90;;;;;;5072887;28;20456;-92
2024/01/20 02:57:11;;;;;;;20.73;15.80;;;1.10;99.90;;;;;;5073117;28;20397;-91
2024/01/20 02:59:36;;;;;;;22.27;16.60;;;1.40;99.90;;;;;;5071964;28;20782;-92
2024/01/20 03:02:02;;;;;;;24.30;17.93;;;1.30;99.90;;;;;;5073037;28;20460;-91
2024/01/20 03:04:28;;;;;;;25.95;19.10;;;1.20;99.90;;;;;;5071758;28;20402;-92
2024/01/20 03:06:54;;;;;;;24.77;18.33;;;1.20;99.90;;;;;;5073139;28;20449;-91
2024/01/20 03:09:20;;;;;;;25.50;19.08;;;1.10;99.90;;;;;;5071811;28;20420;-91
2024/01/20 03:11:45;;;;;;;23.50;18.63;;;1.00;99.90;;;;;;5089809;28;20402;-91
2024/01/20 03:14:11;;;;;;;26.92;21.27;;;1.00;99.90;;;;;;5072286;28;20912;-92
2024/01/20 03:16:37;;;;;;;32.85;24.05;;;0.90;99.90;;;;;;5072253;28;20468;-92
2024/01/20 03:19:03;;;;;;;29.55;24.80;;;1.00;99.90;;;;;;5072050;28;20496;-91
2024/01/20 03:21:29;;;;;;;32.67;24.05;;;1.00;99.90;;;;;;5071140;28;20528;-90
2024/01/20 03:23:55;;;;;;;32.38;27.17;;;1.10;99.90;;;;;;5072683;28;20430;-91
2024/01/20 03:26:21;;;;;;;34.65;27.83;;;1.00;99.90;;;;;;5071608;28;20805;-91
2024/01/20 03:28:47;;;;;;;36.30;29.48;;;1.00;99.90;;;;;;5072271;28;20402;-92
2024/01/20 03:31:13;;;;;;;35.30;27.48;;;1.00;99.90;;;;;;5071383;28;20412;-91
2024/01/20 03:33:39;;;;;;;36.60;30.03;;;1.20;99.90;;;;;;5071684;28;21244;-91
2024/01/20 03:36:05;;;;;;;38.20;30.50;;;1.10;99.90;;;;;;5071816;28;20402;-91
2024/01/20 03:38:30;;;;;;;39.05;29.98;;;1.10;99.90;;;;;;5087820;28;20900;-92
2024/01/20 03:40:56;;;;;;;38.95;30.70;;;1.20;99.90;;;;;;5072355;28;20398;-91
2024/01/20 03:43:21;;;;;;;37.47;30.83;;;1.00;99.90;;;;;;5070556;28;21024;-90
2024/01/20 03:45:47;;;;;;;36.33;30.77;;;1.00;99.90;;;;;;5072052;28;20396;-93
2024/01/20 03:48:13;;;;;;;36.65;30.88;;;0.90;99.90;;;;;;5070301;28;20398;-91
2024/01/20 03:50:38;;;;;;;35.58;31.45;;;0.90;99.90;;;;;;5071612;28;20402;-91
2024/01/20 03:53:05;;;;;;;37.47;31.37;;;1.20;99.90;;;;;;5070885;28;20428;-92
2024/01/20 03:55:31;;;;;;;40.38;32.08;;;1.30;99.90;;;;;;5070823;28;20888;-91
2024/01/20 03:57:57;;;;;;;39.13;30.67;;;0.90;99.90;;;;;;5071992;28;20783;-91
2024/01/20 04:00:23;;;;;;;40.28;32.75;;;1.00;99.90;;;;;;5070405;28;20515;-90
2024/01/20 04:02:49;;;;;;;36.83;31.60;;;0.80;99.90;;;;;;5071667;28;20514;-92
2024/01/20 04:05:15;;;;;;;41.08;31.83;;;1.00;99.90;;;;;;5070230;28;20398;-91
2024/01/20 04:07:40;;;;;;;38.73;31.87;;;0.70;99.90;;;;;;5071741;28;20406;-91
2024/01/20 04:10:06;;;;;;;40.00;32.63;;;0.70;99.90;;;;;;5071026;28;20437;-91
2024/01/20 04:12:32;;;;;;;41.65;33.63;;;0.70;99.90;;;;;;5070552;28;20781;-91
2024/01/20 04:14:58;;;;;;;42.47;33.53;;;0.70;99.90;;;;;;5088175;28;20405;-91
2024/01/20 04:17:24;;;;;;;41.40;32.77;;;0.70;99.90;;;;;;5070385;28;20497;-90
2024/01/20 04:19:49;;;;;;;41.53;33.57;;;0.70;99.90;;;;;;5071312;28;20984;-91
2024/01/20 04:22:15;;;;;;;40.47;33.80;;;0.60;99.90;;;;;;5069408;28;20792;-91
2024/01/20 04:24:41;;;;;;;39.33;32.00;;;0.60;99.90;;;;;;5070770;28;20850;-91
2024/01/20 04:27:06;;;;;;;39.05;31.50;;;0.70;99.90;;;;;;5070198;28;20762;-90
2024/01/20 04:29:32;;;;;;;40.20;32.40;;;0.90;99.90;;;;;;5070804;28;20406;-91
2024/01/20 04:31:58;;;;;;;40.13;32.97;;;0.80;99.90;;;;;;5070799;28;20438;-91
2024/01/20 04:34:23;;;;;;;39.57;32.23;;;0.70;99.90;;;;;;5086939;28;20412;-92
2024/01/20 04:36:49;;;;;;;42.20;32.75;;;0.90;99.90;;;;;;5071169;28;20931;-91
2024/01/20 04:39:15;;;;;;;40.50;32.90;;;1.00;99.90;;;;;;5069373;28;20417;-90
2024/01/20 04:41:40;;;;;;;42.92;34.30;;;1.00;99.90;;;;;;5071185;28;20430;-91
2024/01/20 04:44:06;;;;;;;40.97;32.73;;;0.80;99.90;;;;;;5069139;28;20780;-92
2024/01/20 04:46:32;;;;;;;41.20;32.77;;;0.70;99.90;;;;;;5070531;28;20747;-92
2024/01/20 04:48:58;;;;;;;42.17;31.97;;;0.80;99.90;;;;;;5069823;28;20410;-92
2024/01/20 04:51:24;;;;;;;41.05;33.25;;;0.70;99.90;;;;;;5070680;28;20464;-92
2024/01/20 04:53:49;;;;;;;41.78;32.95;;;0.90;99.90;;;;;;5070290;28;20446;-90
2024/01/20 04:56:19;;;;;;;41.35;32.70;;;0.90;99.90;;;;;;5069550;28;20402;-92
2024/01/20 04:58:46;;;;;;;39.35;33.38;;;0.70;99.90;;;;;;5070478;28;20424;-92
2024/01/20 05:01:12;;;;;;;42.75;33.58;;;0.80;99.90;;;;;;5069465;28;20391;-91
2024/01/20 05:03:37;;;;;;;43.07;33.53;;;0.90;99.90;;;;;;5087329;28;20950;-92
2024/01/20 05:06:05;;;;;;;41.53;33.27;;;0.70;99.90;;;;;;5069387;28;20445;-91
2024/01/20 05:08:31;;;;;;;41.00;32.35;;;1.00;99.90;;;;;;5070408;28;20489;-90
2024/01/20 05:10:56;;;;;;;41.03;32.70;;;0.60;99.90;;;;;;5070037;28;20471;-91
2024/01/20 05:13:22;;;;;;;40.78;32.10;;;0.70;99.90;;;;;;5069511;28;20414;-91
2024/01/20 05:15:48;;;;;;;39.77;31.83;;;0.60;99.90;;;;;;5070226;28;20410;-92
2024/01/20 05:18:13;;;;;;;38.57;31.27;;;0.60;99.90;;;;;;5047795;28;20419;-93
2024/01/20 05:20:39;;;;;;;36.05;28.48;;;0.60;99.90;;;;;;5079826;28;20390;-91
2024/01/20 05:23:05;;;;;;;37.53;27.65;;;0.70;99.90;;;;;;5068979;28;20433;-92
2024/01/20 05:25:30;;;;;;;37.87;28.57;;;0.70;99.90;;;;;;5068722;28;20490;-91
2024/01/20 05:27:56;;;;;;;35.70;27.40;;;0.70;99.90;;;;;;5086115;28;20398;-92
2024/01/20 05:30:22;;;;;;;35.67;26.73;;;0.60;99.90;;;;;;5070022;28;20416;-91
2024/01/20 05:32:47;;;;;;;35.67;27.00;;;0.70;99.90;;;;;;5084367;28;21007;-91
2024/01/20 05:35:14;;;;;;;40.10;29.10;;;0.80;99.90;;;;;;5067412;28;20410;-91
2024/01/20 05:37:40;;;;;;;40.13;29.60;;;0.90;99.90;;;;;;5069901;28;20474;-92
2024/01/20 05:40:06;;;;;;;41.00;29.60;;;0.80;99.90;;;;;;5067499;28;20406;-92
2024/01/20 05:42:32;;;;;;;39.20;28.77;;;0.70;99.90;;;;;;5070149;28;20426;-91
2024/01/20 05:44:58;;;;;;;37.90;28.53;;;0.70;99.90;;;;;;5071945;28;20400;-91
2024/01/20 05:47:24;;;;;;;39.35;29.77;;;0.70;99.90;;;;;;5089274;28;20622;-91
2024/01/20 05:49:50;;;;;;;37.70;29.05;;;0.70;99.90;;;;;;5089108;28;20410;-91
2024/01/20 05:52:15;;;;;;;37.78;28.77;;;0.70;99.90;;;;;;5089167;28;20484;-91
2024/01/20 05:54:41;;;;;;;37.93;28.37;;;1.10;99.90;;;;;;5106211;28;20400;-92
2024/01/20 05:57:08;;;;;;;40.63;29.53;;;1.20;99.90;;;;;;5088192;28;20488;-90
2024/01/20 05:59:34;;;;;;;37.83;29.05;;;0.70;99.90;;;;;;5089985;28;20400;-90
2024/01/20 06:02:00;;;;;;;40.95;28.38;;;0.70;99.90;;;;;;5087581;28;20504;-90
2024/01/20 06:04:26;;;;;;;39.10;28.17;;;0.70;99.90;;;;;;5106244;28;20446;-92
2024/01/20 06:06:53;;;;;;;38.40;27.92;;;0.70;99.90;;;;;;5088579;28;20404;-92
2024/01/20 06:09:19;;;;;;;40.93;28.43;;;0.60;99.90;;;;;;5088241;28;20444;-92
2024/01/20 06:11:44;;;;;;;41.03;28.50;;;1.10;99.90;;;;;;5092287;28;20400;-92
2024/01/20 06:14:10;;;;;;;39.80;28.63;;;0.90;99.90;;;;;;5092442;28;20533;-92
2024/01/20 06:16:38;;;;;;;38.87;28.60;;;0.60;99.90;;;;;;5093568;28;20844;-91
2024/01/20 06:19:08;;;;;;;45.73;30.33;;;0.60;99.90;;;;;;5092291;28;20404;-92
2024/01/20 06:21:33;;;;;;;42.72;29.75;;;0.60;99.90;;;;;;5110522;28;20913;-91
2024/01/20 06:23:59;;;;;;;43.92;28.80;;;0.60;99.90;;;;;;5091607;28;20420;-92
2024/01/20 06:26:25;;;;;;;40.55;29.17;;;0.50;99.90;;;;;;5093571;28;20404;-90
2024/01/20 06:28:50;;;;;;;43.97;29.60;;;0.50;99.90;;;;;;5092910;28;20813;-91
2024/01/20 06:31:23;;;;;;;43.40;29.57;;;0.80;99.90;;;;;;5092228;28;20408;-91
2024/01/20 06:33:50;;;;;;;41.33;28.80;;;0.50;99.90;;;;;;5081048;28;20435;-92
2024/01/20 06:36:16;;;;;;;44.35;29.60;;;0.50;99.90;;;;;;5068172;28;20400;-91
2024/01/20 06:38:41;;;;;;;41.58;28.42;;;0.50;99.90;;;;;;5089579;28;20539;-91
2024/01/20 06:41:07;;;;;;;42.40;30.27;;;0.50;99.90;;;;;;5071803;28;20397;-91
2024/01/20 06:43:33;;;;;;;45.27;29.47;;;0.50;99.90;;;;;;5073275;28;20931;-92
2024/01/20 06:46:00;;;;;;;44.88;29.73;;;0.60;99.90;;;;;;5089360;28;20839;-92
2024/01/20 06:48:26;;;;;;;44.90;30.65;;;0.50;99.90;;;;;;5071923;28;20832;-91
2024/01/20 06:50:52;;;;;;;47.47;30.35;;;0.50;99.90;;;;;;5072805;28;20815;-91
2024/01/20 06:53:18;;;;;;;43.33;29.40;;;0.50;99.90;;;;;;5072096;28;20757;-92
2024/01/20 06:59:13;;;;;;;45.45;30.20;;;0.40;99.90;;;;;;5069914;28;20442;-91
2024/01/20 07:01:39;;;;;;;43.75;28.88;;;0.40;99.90;;;;;;5072886;28;20434;-91
2024/01/20 07:04:05;;;;;;;47.85;31.70;;;0.40;99.90;;;;;;5068583;28;20438;-91
2024/01/20 07:06:31;;;;;;;49.60;32.43;;;0.50;99.90;;;;;;5051697;28;20415;-90
2024/01/20 07:08:56;;;;;;;46.17;31.37;;;0.90;99.90;;;;;;5052177;28;20481;-91
2024/01/20 07:11:24;;;;;;;45.27;30.83;;;0.50;99.90;;;;;;5051303;28;20408;-92
2024/01/20 07:13:50;;;;;;;48.77;32.50;;;0.50;99.90;;;;;;5052817;28;20455;-91
2024/01/20 07:16:19;;;;;;;47.40;32.47;;;0.70;99.90;;;;;;5051377;28;20880;-93
2024/01/20 07:18:45;;;;;;;46.17;32.25;;;0.50;99.90;;;;;;5052558;28;20404;-91
2024/01/20 07:21:10;;;;;;;49.30;29.67;;;0.60;99.90;;;;;;5051409;28;20400;-91
2024/01/20 07:23:36;;;;;;;47.25;31.42;;;0.50;99.90;;;;;;5084762;28;20432;-89
2024/01/20 07:26:02;;;;;;;49.20;32.30;;;0.50;99.90;;;;;;5070592;28;20929;-89
2024/01/20 07:28:28;;;;;;;47.38;30.17;;;0.60;99.90;;;;;;5071386;28;20406;-91
2024/01/20 07:30:54;;;;;;;49.47;32.38;;;0.60;99.90;;;;;;5072452;28;20424;-91
2024/01/20 07:33:20;;;;;;;49.63;32.78;;;0.80;99.90;;;;;;5087355;28;20430;-92
2024/01/20 07:35:46;;;;;;;50.08;31.02;;;0.70;99.90;;;;;;5089516;28;20410;-91
2024/01/20 07:38:12;;;;;;;47.30;32.00;;;0.80;99.90;;;;;;5071124;28;20409;-92
2024/01/20 07:40:38;;;;;;;46.15;30.42;;;0.70;99.90;;;;;;5071512;28;20398;-91
2024/01/20 07:43:04;;;;;;;44.47;30.73;;;0.90;99.90;;;;;;5071423;28;20482;-91
2024/01/20 07:45:31;;;;;;;46.63;30.27;;;0.80;99.90;;;;;;5071452;28;20417;-91
2024/01/20 07:48:00;;;;;;;46.42;30.02;;;0.90;99.90;;;;;;5072633;28;20400;-91
2024/01/20 07:50:25;;;;;;;46.85;30.63;;;0.80;99.90;;;;;;5069874;28;20407;-93
2024/01/20 07:52:51;;;;;;;44.83;30.23;;;0.90;99.90;;;;;;5088727;28;20765;-92
2024/01/20 07:55:17;;;;;;;46.53;30.87;;;0.90;99.90;;;;;;5070670;28;20474;-92
2024/01/20 07:57:43;;;;;;;47.80;30.67;;;0.90;99.90;;;;;;5071658;28;20405;-89
2024/01/20 08:00:13;;;;;;;50.05;30.98;;;1.20;99.90;;;;;;5070705;28;20491;-92
2024/01/20 08:03:17;;;;;;;45.97;30.60;;;1.00;99.90;;;;;;5070498;28;20463;-91
2024/01/20 08:05:49;;;;;;;49.78;33.38;;;1.00;99.90;;;;;;5066030;28;20465;-91
2024/01/20 08:08:36;;;;;;;47.13;32.60;;;1.10;99.90;;;;;;5086524;28;20452;-91
2024/01/20 08:11:05;;;;;;;47.83;32.58;;;1.10;99.90;;;;;;5070137;28;20893;-94
2024/01/20 08:13:31;;;;;;;48.72;31.38;;;1.20;99.90;;;;;;5067839;28;20446;-91
2024/01/20 08:15:56;;;;;;;47.67;32.57;;;1.20;99.90;;;;;;5051420;28;20438;-92
2024/01/20 08:18:22;;;;;;;50.13;33.50;;;1.30;99.90;;;;;;5049685;28;20404;-91
2024/01/20 08:20:47;;;;;;;47.47;32.00;;;1.40;99.90;;;;;;5051694;28;20395;-90
2024/01/20 08:23:13;;;;;;;53.40;34.90;;;1.30;99.90;;;;;;5065458;28;20432;-91
2024/01/20 08:25:39;;;;;;;51.53;33.80;;;1.40;99.90;;;;;;5084564;28;20407;-90
2024/01/20 08:28:05;;;;;;;51.92;35.05;;;1.40;99.90;;;;;;5050245;28;20400;-92
2024/01/20 08:30:31;;;;;;;49.38;33.50;;;1.40;99.90;;;;;;5050555;28;20487;-91
2024/01/20 08:32:56;;;;;;;53.03;34.20;;;1.40;99.90;;;;;;5049713;28;20408;-91
2024/01/20 08:35:22;;;;;;;54.90;36.63;;;1.30;99.90;;;;;;5066864;28;20797;-90
2024/01/20 08:37:48;;;;;;;51.70;35.35;;;1.50;99.90;;;;;;5049904;28;20399;-91
2024/01/20 08:40:13;;;;;;;52.65;34.95;;;1.70;99.90;;;;;;5066245;28;20447;-91
2024/01/20 08:42:39;;;;;;;52.42;33.47;;;1.50;99.90;;;;;;5050864;28;20478;-90
2024/01/20 08:45:05;;;;;;;53.60;35.43;;;1.60;99.90;;;;;;5072106;28;20390;-93
2024/01/20 08:47:31;;;;;;;53.33;34.95;;;1.60;99.90;;;;;;5087443;28;20401;-91
2024/01/20 08:49:57;;;;;;;49.83;33.53;;;1.80;99.90;;;;;;5086529;28;20765;-93
2024/01/20 08:52:22;;;;;;;47.00;32.03;;;1.70;99.90;;;;;;5069785;28;20847;-91
2024/01/20 08:54:48;;;;;;;52.03;33.20;;;1.70;99.90;;;;;;5086758;28;20817;-90
2024/01/20 08:57:14;;;;;;;50.25;34.25;;;1.60;99.90;;;;;;5069599;28;20785;-89
2024/01/20 08:59:40;;;;;;;50.80;33.38;;;1.60;99.90;;;;;;5070037;28;20398;-90
2024/01/20 09:02:06;;;;;;;48.60;32.08;;;1.90;99.90;;;;;;5068567;28;20773;-92
2024/01/20 09:04:32;;;;;;;46.20;31.63;;;1.70;99.90;;;;;;5070190;28;20531;-90
2024/01/20 09:06:57;;;;;;;50.38;32.50;;;1.70;99.90;;;;;;5068884;28;20406;-92
2024/01/20 09:09:23;;;;;;;47.58;32.00;;;2.10;99.90;;;;;;5070293;28;20551;-90
2024/01/20 09:11:48;;;;;;;46.37;31.67;;;1.80;99.90;;;;;;5070054;28;20425;-91
2024/01/20 09:14:15;;;;;;;47.77;31.27;;;1.80;99.90;;;;;;5069127;28;20427;-91
2024/01/20 09:16:40;;;;;;;48.65;31.20;;;1.90;99.90;;;;;;5069708;28;20522;-91
2024/01/20 09:19:06;;;;;;;48.20;31.63;;;1.90;99.90;;;;;;5069402;28;20488;-94
2024/01/20 09:21:32;;;;;;;48.65;31.45;;;1.90;99.90;;;;;;5069988;28;20398;-90
2024/01/20 09:23:57;;;;;;;43.15;30.02;;;1.90;99.90;;;;;;5068388;28;20828;-91
2024/01/20 09:26:23;;;;;;;42.67;28.10;;;2.00;99.90;;;;;;5086835;28;20401;-91
2024/01/20 09:28:49;;;;;;;46.30;30.67;;;2.10;99.90;;;;;;5068977;28;20418;-92
2024/01/20 09:31:15;;;;;;;44.63;28.33;;;2.10;99.90;;;;;;5069414;28;20841;-91
2024/01/20 09:33:43;;;;;;;44.27;28.23;;;2.00;99.90;;;;;;5069891;28;20549;-90
2024/01/20 09:36:09;;;;;;;41.38;28.38;;;2.10;99.90;;;;;;5068689;28;20391;-91
2024/01/20 09:38:35;;;;;;;43.28;27.30;;;2.00;99.90;;;;;;5070376;28;20423;-92
2024/01/20 09:41:01;;;;;;;41.15;28.65;;;2.20;99.90;;;;;;5068484;28;20765;-90
2024/01/20 09:43:28;;;;;;;41.53;28.23;;;2.30;99.90;;;;;;5068973;28;21056;-90
2024/01/20 09:45:57;;;;;;;43.37;27.90;;;2.10;99.90;;;;;;5073002;28;20941;-93
2024/01/20 09:48:23;;;;;;;41.55;27.65;;;2.20;99.90;;;;;;5074095;28;20479;-92
2024/01/20 09:50:49;;;;;;;40.90;25.88;;;2.20;99.90;;;;;;5072929;28;20413;-90
2024/01/20 09:53:17;;;;;;;42.90;27.33;;;2.20;99.90;;;;;;5072958;28;20402;-91
2024/01/20 09:55:44;;;;;;;37.85;25.58;;;2.20;99.90;;;;;;5091028;28;20512;-89
2024/01/20 09:58:14;;;;;;;42.00;26.92;;;2.20;99.90;;;;;;5072005;28;20455;-91
2024/01/20 10:00:40;;;;;;;39.73;26.43;;;2.40;99.90;;;;;;5073720;28;20406;-90
2024/01/20 10:03:11;;;;;;;37.80;25.80;;;2.20;99.90;;;;;;5072613;28;20430;-90
2024/01/20 10:05:37;;;;;;;40.63;26.67;;;2.20;99.90;;;;;;5073534;28;20447;-91
2024/01/20 10:08:05;;;;;;;38.63;25.15;;;2.30;99.90;;;;;;5085248;28;20401;-92
2024/01/20 10:10:32;;;;;;;40.33;26.08;;;2.30;99.90;;;;;;5093070;28;20408;-92
2024/01/20 10:12:58;;;;;;;41.88;26.23;;;2.30;99.90;;;;;;5093931;28;20401;-92
2024/01/20 10:15:26;;;;;;;40.35;26.88;;;2.30;99.90;;;;;;5092775;28;20404;-92
2024/01/20 10:17:53;;;;;;;40.50;26.07;;;2.40;99.90;;;;;;5093897;28;21010;-91
2024/01/20 10:20:26;;;;;;;37.00;25.35;;;2.40;99.90;;;;;;5092475;28;20463;-92
2024/01/20 10:22:52;;;;;;;41.28;26.85;;;2.40;99.90;;;;;;5093384;28;20434;-92
2024/01/20 10:25:21;;;;;;;36.08;25.38;;;2.50;99.90;;;;;;5093299;28;20460;-92
2024/01/20 10:27:49;;;;;;;38.13;25.95;;;2.50;99.90;;;;;;5092911;28;20408;-93
2024/01/20 10:30:16;;;;;;;35.17;25.23;;;2.60;99.90;;;;;;5094151;28;20946;-94
2024/01/20 10:32:43;;;;;;;34.90;23.48;;;2.30;99.90;;;;;;5092550;28;20396;-94
2024/01/20 10:35:08;;;;;;;35.05;22.17;;;2.70;99.90;;;;;;5093676;28;20415;-90
2024/01/20 10:37:38;;;;;;;36.10;24.77;;;2.70;99.90;;;;;;5092299;28;20393;-91
2024/01/20 10:40:05;;;;;;;35.83;23.83;;;2.50;99.90;;;;;;5093081;28;20483;-94
2024/01/20 10:42:33;;;;;;;37.83;24.52;;;2.50;99.90;;;;;;5083883;28;20808;-93
2024/01/20 10:45:09;;;;;;;35.42;23.90;;;2.70;99.90;;;;;;5072559;28;20414;-93
2024/01/20 10:47:36;;;;;;;36.58;23.98;;;2.50;99.90;;;;;;5072404;28;20414;-92
2024/01/20 10:50:06;;;;;;;34.90;22.92;;;2.70;99.90;;;;;;5071125;28;20497;-92
2024/01/20 10:52:36;;;;;;;35.63;23.38;;;2.40;99.90;;;;;;5073502;28;20394;-91
2024/01/20 10:55:03;;;;;;;34.70;22.50;;;2.50;99.90;;;;;;5071285;28;20863;-92
2024/01/20 10:57:29;;;;;;;35.63;21.52;;;2.50;99.90;;;;;;5071985;28;20923;-90
2024/01/20 10:59:57;;;;;;;34.58;23.23;;;2.60;99.90;;;;;;5071955;28;20398;-90
2024/01/20 11:02:24;;;;;;;38.73;24.07;;;2.50;99.90;;;;;;5071771;28;20412;-91
2024/01/20 11:04:50;;;;;;;34.25;22.60;;;2.50;99.90;;;;;;5072754;28;20719;-91
2024/01/20 11:07:23;;;;;;;40.65;25.00;;;2.40;99.90;;;;;;5071056;28;20467;-91
2024/01/20 11:09:58;;;;;;;40.25;25.92;;;2.40;99.90;;;;;;5072393;28;20921;-90
2024/01/20 11:12:25;;;;;;;41.30;25.70;;;2.40;99.90;;;;;;5071313;28;20414;-91
2024/01/20 11:14:55;;;;;;;39.17;26.00;;;2.40;99.90;;;;;;5072435;28;20452;-91
2024/01/20 11:17:22;;;;;;;40.92;27.25;;;2.30;99.90;;;;;;5071694;28;20402;-87
2024/01/20 11:19:50;;;;;;;44.20;28.40;;;2.30;99.90;;;;;;5071577;28;20401;-92
2024/01/20 11:22:33;;;;;;;43.03;28.80;;;2.50;99.90;;;;;;5072073;28;20398;-92
2024/01/20 11:25:07;;;;;;;44.03;28.17;;;2.30;99.90;;;;;;5087649;28;20414;-94
2024/01/20 11:27:58;;;;;;;43.92;28.30;;;2.30;99.90;;;;;;5072324;28;20406;-91
2024/01/20 11:30:28;;;;;;;46.53;29.90;;;2.30;99.90;;;;;;5071463;28;20501;-90
2024/01/20 11:32:54;;;;;;;46.60;30.52;;;2.30;99.90;;;;;;5070868;28;20443;-95
2024/01/20 11:35:20;;;;;;;46.47;28.80;;;2.30;99.90;;;;;;5071859;28;20402;-90
2024/01/20 11:37:47;;;;;;;47.03;29.25;;;2.10;99.90;;;;;;5070995;28;20412;-92
2024/01/20 11:40:13;;;;;;;48.63;31.67;;;2.30;99.90;;;;;;5072109;28;20395;-92
2024/01/20 11:42:39;;;;;;;53.35;32.28;;;2.50;99.90;;;;;;5087621;28;20513;-89
2024/01/20 11:45:06;;;;;;;51.72;33.92;;;2.40;99.90;;;;;;5071218;28;20895;-92
2024/01/20 11:47:31;;;;;;;50.55;33.65;;;2.30;99.90;;;;;;5070620;28;20398;-90
2024/01/20 11:49:58;;;;;;;51.70;33.03;;;2.30;99.90;;;;;;5071235;28;20456;-93
2024/01/20 11:52:28;;;;;;;52.45;34.35;;;2.40;99.90;;;;;;5071297;28;20459;-92
2024/01/20 11:54:54;;;;;;;51.42;34.47;;;2.30;99.90;;;;;;5070101;28;20457;-95
2024/01/20 11:57:20;;;;;;;52.03;34.83;;;2.50;99.90;;;;;;5071784;28;20459;-93
2024/01/20 11:59:46;;;;;;;51.45;34.28;;;2.40;99.90;;;;;;5070194;28;20411;-91
2024/01/20 12:02:12;;;;;;;54.13;35.03;;;2.40;99.90;;;;;;5070890;28;20502;-92
2024/01/20 12:04:38;;;;;;;50.08;34.63;;;2.40;99.90;;;;;;5061501;28;20500;-89
2024/01/20 12:07:04;;;;;;;51.20;34.75;;;2.60;99.90;;;;;;5070768;28;20406;-90
2024/01/20 12:09:30;;;;;;;49.00;31.92;;;2.40;99.90;;;;;;5070641;28;20412;-92
2024/01/20 12:11:56;;;;;;;48.05;31.63;;;2.60;99.90;;;;;;5069201;28;20432;-90
2024/01/20 12:14:22;;;;;;;51.38;32.40;;;2.50;99.90;;;;;;5088432;28;20402;-92
2024/01/20 12:16:49;;;;;;;46.00;30.57;;;2.60;99.90;;;;;;5068875;28;20430;-89
2024/01/20 12:19:15;;;;;;;47.28;31.85;;;2.50;99.90;;;;;;5070227;28;20775;-89
2024/01/20 12:21:42;;;;;;;46.92;31.33;;;2.70;99.90;;;;;;5069261;28;20413;-94
2024/01/20 12:24:11;;;;;;;43.45;30.17;;;3.00;99.90;;;;;;5069607;28;20974;-91
2024/01/20 12:26:37;;;;;;;42.85;29.48;;;2.70;99.90;;;;;;5069012;28;20444;-91
2024/01/20 12:29:03;;;;;;;39.72;29.73;;;2.70;99.90;;;;;;5069859;28;20406;-93
2024/01/20 12:31:30;;;;;;;39.92;26.92;;;3.00;99.90;;;;;;5070749;28;20916;-91
2024/01/20 12:33:56;;;;;;;37.35;24.50;;;3.10;99.90;;;;;;5085804;28;20443;-92
2024/01/20 12:36:22;;;;;;;38.03;26.50;;;3.00;99.90;;;;;;5071323;28;20402;-91
2024/01/20 12:38:48;;;;;;;37.42;25.33;;;2.90;99.90;;;;;;5069928;28;20453;-91